パース の空港の天気 - METARとTAF

パース空港 ( YPPH / PER ) - オーストラリア 西オーストラリア州パース
飛行場実況気象(Metar)
観測時間12/15 20:30 AWST (12/15 12:30 UTC)
風向・風速南南西 5m/s
視程10km以上
天気現象
なし
気温22℃
湿度69%
気圧1003hPa
METARYPPH 151230Z 20009KT CAVOK 22/16 Q1003 NOSIG
過去の天気等 Google飛行場航空写真 Wunderground天気予報

過去48時間のMETAR

飛行場予報(TAF)
発表時間: 12/15 19:07 AWST (12/15 11:07 UTC)
予報対象時間: 15日20時 AWST ~ 17日2時 AWST
風向・風速南西 5m/s
視程10km以上
なし
15日23時 AWST から
風向・風速南 5m/s
視程10km以上
全天の4割程度の雲 雲底高度 460m
16日8時 AWST から
風向・風速南南東 7m/s
視程10km以上
なし
16日14時 AWST から
風向・風速南 9m/s
視程10km以上
なし
16日23時 AWST から
風向・風速南南東 7m/s
視程10km以上
全天の4割程度の雲 雲底高度 910m
TAF YPPH 151107Z 1512/1618 22010KT CAVOK
FM151500 18010KT 9999 SCT015
FM160000 16014KT CAVOK
FM160600 17018KT CAVOK
FM161500 15014KT 9999 SCT030
PROB30 INTER 1605/1612 VRB25G40KT 5000 TSRA SCT050 FEW080CB